Pine Neck, New York
Current Conditions -  °F | °C
As of 11:53 PM on Monday 20 Oct 2014 (Local Time) from KFOK Reporting Station
Broken Clouds Broken Clouds  
Wind Chill: 62°   Ceiling: 6000
Heat Index: 62°   Visibility: 10mi
Dew Point: 50°   Wind: 12mph
Humidity: 65%   Direction: 200°SSW
Pressure: 29.99"   Gusts: NA
Location:  40.9692°N, 72.306°W
Report Text: KFOK 210353Z 20010KT 10SM FEW029 SCT035 BKN060 17/10 A2999 RMK AO2 SLP156 T01670100
Loading
Personal Weather Stations






























Interactive Weather Map
Tropical Storm Tracking
New forecast layout! Learn more

10-Day Weather Forecast

Advertisements
Track Severe Weather on mobile